Time;durP1;ratioP1;P1;durP2;ratioP2;P2;SDS_P1;SDS_P2;PMS_P1;PMS_P2;Temp;Humidity;BMP_temperature;BMP_pressure;BME280_temperature;BME280_humidity;BME280_pressure;Samples;Min_cycle;Max_cycle;Signal;HPM_P1;HPM_P2
2021/08/13 00:01:22;;;;;;;17.38;8.63;;;;;;;;;;6180316;23;20160;-90
2021/08/13 00:04:28;;;;;;;15.82;8.57;;;;;;;;;;6180414;23;20519;-90
2021/08/13 00:07:33;;;;;;;13.82;8.52;;;;;;;;;;6180050;23;20168;-91
2021/08/13 00:10:38;;;;;;;13.20;8.00;;;;;;;;;;6182000;23;20272;-90
2021/08/13 00:13:43;;;;;;;15.75;9.27;;;;;;;;;;6180927;23;20157;-89
2021/08/13 00:16:48;;;;;;;15.93;8.68;;;;;;;;;;6181967;23;20295;-89
2021/08/13 00:19:54;;;;;;;17.52;9.52;;;;;;;;;;6181079;23;20167;-89
2021/08/13 00:22:59;;;;;;;16.95;8.75;;;;;;;;;;6180977;23;20503;-89
2021/08/13 00:26:04;;;;;;;17.50;9.10;;;;;;;;;;6180256;23;20647;-90
2021/08/13 00:29:09;;;;;;;17.27;8.93;;;;;;;;;;6150221;23;20173;-90
2021/08/13 00:32:16;;;;;;;14.13;8.80;;;;;;;;;;6150367;23;20212;-90
2021/08/13 00:35:23;;;;;;;16.85;9.18;;;;;;;;;;6151672;23;20175;-90
2021/08/13 00:38:28;;;;;;;18.45;9.40;;;;;;;;;;6151084;23;20176;-90
2021/08/13 00:41:33;;;;;;;15.13;8.40;;;;;;;;;;6150083;23;20152;-90
2021/08/13 00:44:40;;;;;;;17.35;9.15;;;;;;;;;;6151101;23;20196;-89
2021/08/13 00:47:47;;;;;;;16.17;9.10;;;;;;;;;;6148478;23;20172;-89
2021/08/13 00:51:02;;;;;;;13.23;8.70;;;;;;;;;;6150081;23;20193;-89
2021/08/13 00:54:10;;;;;;;16.08;9.05;;;;;;;;;;6148780;23;20168;-89
2021/08/13 00:57:21;;;;;;;18.02;8.85;;;;;;;;;;6148977;23;20159;-89
2021/08/13 01:00:51;;;;;;;17.15;8.23;;;;;;;;;;6147524;23;20167;-91
2021/08/13 01:03:56;;;;;;;14.82;8.75;;;;;;;;;;6149631;23;20180;-88
2021/08/13 01:07:03;;;;;;;17.45;8.85;;;;;;;;;;6148728;23;20172;-91
2021/08/13 01:10:12;;;;;;;15.00;9.10;;;;;;;;;;6147322;23;20164;-90
2021/08/13 01:13:25;;;;;;;17.73;9.52;;;;;;;;;;6148013;23;20200;-89
2021/08/13 01:16:32;;;;;;;14.15;8.45;;;;;;;;;;6146525;23;20164;-90
2021/08/13 01:19:44;;;;;;;18.05;9.40;;;;;;;;;;6148463;23;20180;-89
2021/08/13 01:22:57;;;;;;;17.38;9.13;;;;;;;;;;6148184;23;20605;-90
2021/08/13 01:26:05;;;;;;;16.13;9.02;;;;;;;;;;6147590;23;20200;-90
2021/08/13 01:29:16;;;;;;;16.33;8.50;;;;;;;;;;6148923;23;20184;-90
2021/08/13 01:32:43;;;;;;;14.57;8.90;;;;;;;;;;6149135;23;20264;-89
2021/08/13 01:35:54;;;;;;;13.93;8.88;;;;;;;;;;6148888;23;20176;-90
2021/08/13 01:39:02;;;;;;;16.67;8.75;;;;;;;;;;6149012;23;20183;-90
2021/08/13 01:42:08;;;;;;;18.88;8.43;;;;;;;;;;6150613;23;20156;-90
2021/08/13 01:45:15;;;;;;;15.15;8.30;;;;;;;;;;6147973;23;20628;-90
2021/08/13 01:48:23;;;;;;;13.57;8.48;;;;;;;;;;6149091;23;20192;-89
2021/08/13 01:51:30;;;;;;;14.68;8.38;;;;;;;;;;6150178;23;20173;-90
2021/08/13 01:54:37;;;;;;;16.17;8.75;;;;;;;;;;6150205;23;20169;-89
2021/08/13 01:57:43;;;;;;;16.92;8.60;;;;;;;;;;6149682;23;20165;-90
2021/08/13 02:00:52;;;;;;;13.73;7.85;;;;;;;;;;6149152;23;20160;-89
2021/08/13 02:03:59;;;;;;;18.75;9.07;;;;;;;;;;6151068;23;20225;-90
2021/08/13 02:07:05;;;;;;;16.75;8.80;;;;;;;;;;6151363;23;20168;-90
2021/08/13 02:10:12;;;;;;;14.18;8.85;;;;;;;;;;6150467;23;20168;-90
2021/08/13 02:13:18;;;;;;;15.73;9.30;;;;;;;;;;6149960;23;20177;-89
2021/08/13 02:16:30;;;;;;;15.23;8.88;;;;;;;;;;6150508;23;20172;-90
2021/08/13 02:19:39;;;;;;;17.38;8.73;;;;;;;;;;6149662;23;20222;-90
2021/08/13 02:22:47;;;;;;;15.82;9.45;;;;;;;;;;6151054;23;20164;-90
2021/08/13 02:25:52;;;;;;;16.92;9.20;;;;;;;;;;6150037;23;20196;-89
2021/08/13 02:29:01;;;;;;;14.30;8.52;;;;;;;;;;6150074;23;20187;-89
2021/08/13 02:32:08;;;;;;;15.52;8.98;;;;;;;;;;6150826;23;20164;-89
2021/08/13 02:35:14;;;;;;;19.73;9.63;;;;;;;;;;6150958;23;20168;-90
2021/08/13 02:38:21;;;;;;;19.88;8.95;;;;;;;;;;6150208;23;20180;-90
2021/08/13 02:41:27;;;;;;;16.48;9.68;;;;;;;;;;6148996;23;20596;-90
2021/08/13 02:44:34;;;;;;;22.63;10.25;;;;;;;;;;6149274;23;20216;-90
2021/08/13 02:47:42;;;;;;;18.98;9.40;;;;;;;;;;6149473;23;20196;-88
2021/08/13 02:50:50;;;;;;;20.60;9.55;;;;;;;;;;6151518;23;20621;-89
2021/08/13 02:53:57;;;;;;;14.57;8.98;;;;;;;;;;6151221;23;20193;-90
2021/08/13 02:57:04;;;;;;;20.38;9.95;;;;;;;;;;6149246;23;20177;-89
2021/08/13 03:00:11;;;;;;;17.13;9.18;;;;;;;;;;6149108;23;20641;-89
2021/08/13 03:03:19;;;;;;;20.33;9.65;;;;;;;;;;6149732;23;20477;-89
2021/08/13 03:06:29;;;;;;;19.73;9.63;;;;;;;;;;6149874;23;20271;-90
2021/08/13 03:09:34;;;;;;;20.35;9.43;;;;;;;;;;6149431;23;20216;-89
2021/08/13 03:12:40;;;;;;;17.48;8.85;;;;;;;;;;6150123;23;20164;-88
2021/08/13 03:15:47;;;;;;;23.98;9.70;;;;;;;;;;6150889;23;20172;-89
2021/08/13 03:18:54;;;;;;;21.80;9.63;;;;;;;;;;6149338;23;20169;-90
2021/08/13 03:24:55;;;;;;;20.10;9.90;;;;;;;;;;6172882;23;20299;-90
2021/08/13 03:27:57;;;;;;;20.33;9.38;;;;;;;;;;6167040;23;20526;-92
2021/08/13 03:31:02;;;;;;;15.05;8.52;;;;;;;;;;6164932;23;20184;-89
2021/08/13 03:34:10;;;;;;;14.32;8.57;;;;;;;;;;6165460;23;20181;-90
2021/08/13 03:37:16;;;;;;;16.42;9.35;;;;;;;;;;6165621;23;20175;-90
2021/08/13 03:40:24;;;;;;;18.05;8.93;;;;;;;;;;6166250;23;20207;-91
2021/08/13 03:43:31;;;;;;;24.35;9.73;;;;;;;;;;6165586;23;20174;-90
2021/08/13 03:46:37;;;;;;;17.30;9.00;;;;;;;;;;6165370;23;20213;-90
2021/08/13 03:49:44;;;;;;;16.35;9.90;;;;;;;;;;6165599;23;20152;-91
2021/08/13 03:52:50;;;;;;;17.50;8.60;;;;;;;;;;6165490;23;20246;-91
2021/08/13 03:55:58;;;;;;;14.82;9.40;;;;;;;;;;6166527;23;20205;-89
2021/08/13 03:59:03;;;;;;;17.95;9.02;;;;;;;;;;6166568;23;20159;-88
2021/08/13 04:05:47;;;;;;;19.80;9.65;;;;;;;;;;6165168;23;20196;-88
2021/08/13 04:08:53;;;;;;;19.35;9.70;;;;;;;;;;6166139;23;20180;-90
2021/08/13 04:12:00;;;;;;;20.13;10.02;;;;;;;;;;6170266;23;20169;-90
2021/08/13 04:15:09;;;;;;;18.50;9.52;;;;;;;;;;6167509;23;20173;-90
2021/08/13 04:18:13;;;;;;;18.52;9.25;;;;;;;;;;6168044;23;20192;-90
2021/08/13 04:21:19;;;;;;;19.83;10.05;;;;;;;;;;6171689;23;20149;-89
2021/08/13 04:24:24;;;;;;;19.17;10.00;;;;;;;;;;6170596;23;20168;-90
2021/08/13 04:27:31;;;;;;;14.70;9.02;;;;;;;;;;6182841;23;20195;-91
2021/08/13 04:30:36;;;;;;;18.67;9.65;;;;;;;;;;6183105;23;20249;-90
2021/08/13 04:33:44;;;;;;;14.63;9.40;;;;;;;;;;6180524;23;20229;-90
2021/08/13 04:36:54;;;;;;;21.63;10.07;;;;;;;;;;6181482;23;20167;-90
2021/08/13 04:39:59;;;;;;;16.75;9.75;;;;;;;;;;6180620;23;20168;-90
2021/08/13 04:43:06;;;;;;;15.40;9.32;;;;;;;;;;6179530;23;20168;-90
2021/08/13 04:46:11;;;;;;;18.83;9.18;;;;;;;;;;6181802;23;20175;-90
2021/08/13 04:49:18;;;;;;;21.35;10.63;;;;;;;;;;6181384;23;20171;-90
2021/08/13 04:52:26;;;;;;;17.42;9.57;;;;;;;;;;6183688;23;20180;-90
2021/08/13 04:55:32;;;;;;;18.17;9.27;;;;;;;;;;6199459;23;20172;-89
2021/08/13 04:58:44;;;;;;;17.20;9.63;;;;;;;;;;6182987;23;20196;-89
2021/08/13 05:02:04;;;;;;;15.30;9.40;;;;;;;;;;6182347;23;20168;-89
2021/08/13 05:05:09;;;;;;;20.40;9.70;;;;;;;;;;6181417;23;20163;-89
2021/08/13 05:08:15;;;;;;;17.77;9.57;;;;;;;;;;6181220;23;20479;-89
2021/08/13 05:11:21;;;;;;;53.08;11.68;;;;;;;;;;6182038;23;20168;-90
2021/08/13 05:14:28;;;;;;;18.52;8.85;;;;;;;;;;6182195;23;20165;-90
2021/08/13 05:17:33;;;;;;;27.85;9.90;;;;;;;;;;6179902;23;20220;-90
2021/08/13 05:20:38;;;;;;;19.92;10.40;;;;;;;;;;6199435;23;20167;-90
2021/08/13 05:23:45;;;;;;;18.83;9.43;;;;;;;;;;6184068;23;20232;-90
2021/08/13 05:26:50;;;;;;;19.90;10.00;;;;;;;;;;6192927;23;20210;-89
2021/08/13 05:29:58;;;;;;;16.48;9.32;;;;;;;;;;6181303;23;20172;-89
2021/08/13 05:33:03;;;;;;;26.33;9.80;;;;;;;;;;6181762;23;20632;-90
2021/08/13 05:36:08;;;;;;;15.55;9.43;;;;;;;;;;6183848;23;20171;-89
2021/08/13 05:39:14;;;;;;;14.23;9.00;;;;;;;;;;6183195;23;20168;-89
2021/08/13 05:42:20;;;;;;;18.65;9.07;;;;;;;;;;6185783;23;20164;-90
2021/08/13 05:45:28;;;;;;;16.08;9.35;;;;;;;;;;6183385;23;20540;-89
2021/08/13 05:48:34;;;;;;;18.48;9.10;;;;;;;;;;6182393;23;20208;-91
2021/08/13 05:51:39;;;;;;;16.80;9.85;;;;;;;;;;6182936;23;20167;-90
2021/08/13 05:54:45;;;;;;;21.05;9.52;;;;;;;;;;6184513;23;20223;-90
2021/08/13 05:57:50;;;;;;;14.60;8.82;;;;;;;;;;6185532;23;20164;-90
2021/08/13 06:00:57;;;;;;;17.77;9.40;;;;;;;;;;6183946;23;20279;-90
2021/08/13 06:04:03;;;;;;;18.35;10.27;;;;;;;;;;6182762;23;20164;-91
2021/08/13 06:07:10;;;;;;;16.15;8.77;;;;;;;;;;6184984;23;20195;-88
2021/08/13 06:10:17;;;;;;;18.20;8.88;;;;;;;;;;6184140;23;20229;-90
2021/08/13 06:13:22;;;;;;;17.55;9.45;;;;;;;;;;6183787;23;20203;-89
2021/08/13 06:16:31;;;;;;;18.40;9.88;;;;;;;;;;6184718;23;20168;-90
2021/08/13 06:19:37;;;;;;;21.25;9.18;;;;;;;;;;6184087;23;20168;-90
2021/08/13 06:22:51;;;;;;;20.13;9.50;;;;;;;;;;6189740;23;20152;-90
2021/08/13 06:25:57;;;;;;;21.20;9.02;;;;;;;;;;6187691;23;20187;-92
2021/08/13 06:29:03;;;;;;;17.25;9.10;;;;;;;;;;6185050;23;20204;-90
2021/08/13 06:32:13;;;;;;;17.45;9.00;;;;;;;;;;6184575;23;20191;-90
2021/08/13 06:35:26;;;;;;;13.05;8.45;;;;;;;;;;6187056;23;20167;-90
2021/08/13 06:38:33;;;;;;;14.95;9.27;;;;;;;;;;6190463;23;20219;-89
2021/08/13 06:41:38;;;;;;;17.20;7.85;;;;;;;;;;6180190;23;20219;-90
2021/08/13 06:44:53;;;;;;;24.60;9.65;;;;;;;;;;6183860;23;20160;-91
2021/08/13 06:48:01;;;;;;;15.98;9.32;;;;;;;;;;6181109;23;20195;-90
2021/08/13 06:51:08;;;;;;;14.57;8.93;;;;;;;;;;6182206;23;20550;-90
2021/08/13 06:54:14;;;;;;;18.45;9.65;;;;;;;;;;6202269;23;20164;-91
2021/08/13 06:57:20;;;;;;;16.27;9.60;;;;;;;;;;6186641;23;20148;-91
2021/08/13 07:00:26;;;;;;;15.68;8.75;;;;;;;;;;6182413;23;20176;-90
2021/08/13 07:03:32;;;;;;;17.67;8.80;;;;;;;;;;6183232;23;20152;-91
2021/08/13 07:06:38;;;;;;;14.15;9.65;;;;;;;;;;6180494;23;20268;-89
2021/08/13 07:09:46;;;;;;;17.05;9.00;;;;;;;;;;6181051;23;20171;-91
2021/08/13 07:12:51;;;;;;;16.65;9.43;;;;;;;;;;6180703;23;20216;-90
2021/08/13 07:15:58;;;;;;;15.98;9.65;;;;;;;;;;6180284;23;20250;-92
2021/08/13 07:19:05;;;;;;;14.52;9.90;;;;;;;;;;6180493;23;20164;-90
2021/08/13 07:22:10;;;;;;;15.70;9.35;;;;;;;;;;6183551;23;20184;-90
2021/08/13 07:25:24;;;;;;;15.60;9.15;;;;;;;;;;6181940;23;20167;-91
2021/08/13 07:28:29;;;;;;;14.38;9.60;;;;;;;;;;6152228;23;20172;-89
2021/08/13 07:31:35;;;;;;;14.77;9.20;;;;;;;;;;6151525;23;20185;-91
2021/08/13 07:34:44;;;;;;;14.32;9.20;;;;;;;;;;6156620;23;20179;-90
2021/08/13 07:37:53;;;;;;;18.17;10.15;;;;;;;;;;6155784;23;20161;-90
2021/08/13 07:40:59;;;;;;;19.05;10.20;;;;;;;;;;6159002;23;20193;-90
2021/08/13 07:44:04;;;;;;;33.75;10.85;;;;;;;;;;6157339;23;20168;-91
2021/08/13 07:47:09;;;;;;;18.50;10.23;;;;;;;;;;6158590;23;20273;-91
2021/08/13 07:50:25;;;;;;;18.63;10.15;;;;;;;;;;6153890;23;20204;-91
2021/08/13 07:53:31;;;;;;;17.83;9.90;;;;;;;;;;6155930;23;20253;-89
2021/08/13 08:36:00;;;;;;;16.52;8.38;;;;;;;;;;5583183;22;15083324;-92
2021/08/13 08:39:10;;;;;;;12.85;8.18;;;;;;;;;;6239230;23;20182;-90
2021/08/13 08:42:16;;;;;;;19.77;9.18;;;;;;;;;;6236726;23;20221;-91
2021/08/13 08:45:20;;;;;;;12.85;8.82;;;;;;;;;;6239984;23;20166;-91
2021/08/13 08:48:26;;;;;;;17.27;8.65;;;;;;;;;;6239078;23;20651;-90
2021/08/13 08:51:33;;;;;;;18.23;8.82;;;;;;;;;;6237551;23;20173;-91
2021/08/13 08:54:40;;;;;;;16.55;8.35;;;;;;;;;;6243204;23;20150;-90
2021/08/13 08:57:46;;;;;;;15.35;8.10;;;;;;;;;;6237210;23;20217;-90
2021/08/13 09:00:51;;;;;;;29.30;12.05;;;;;;;;;;6240377;23;20217;-91
2021/08/13 09:03:56;;;;;;;15.10;8.60;;;;;;;;;;6240419;23;20680;-91
2021/08/13 09:07:03;;;;;;;14.93;8.35;;;;;;;;;;6240495;23;20236;-90
2021/08/13 09:10:10;;;;;;;12.20;8.93;;;;;;;;;;6233541;23;20221;-91
2021/08/13 09:13:23;;;;;;;22.42;9.18;;;;;;;;;;6230347;23;20433;-89
2021/08/13 09:16:33;;;;;;;16.00;8.98;;;;;;;;;;6234398;23;20187;-91
2021/08/13 09:19:40;;;;;;;12.75;9.55;;;;;;;;;;6234832;23;20197;-91
2021/08/13 09:26:20;;;;;;;18.13;9.48;;;;;;;;;;6231115;23;20189;-90
2021/08/13 09:30:05;;;;;;;19.60;10.05;;;;;;;;;;6233451;23;20272;-90
2021/08/13 09:33:16;;;;;;;16.52;8.80;;;;;;;;;;6239331;23;20237;-90
2021/08/13 09:36:21;;;;;;;14.13;8.45;;;;;;;;;;6232897;23;20190;-91
2021/08/13 09:39:28;;;;;;;15.90;8.60;;;;;;;;;;6232578;23;20259;-90
2021/08/13 09:42:35;;;;;;;16.42;8.93;;;;;;;;;;6233260;23;20167;-90
2021/08/13 10:59:04;;;;;;;14.10;9.63;;;;;;;;;;6212082;22;20210;-91
2021/08/13 11:02:20;;;;;;;18.48;8.75;;;;;;;;;;6256728;23;20277;-90
2021/08/13 11:05:49;;;;;;;23.58;10.38;;;;;;;;;;6257001;23;20162;-89
2021/08/13 11:08:57;;;;;;;24.02;10.38;;;;;;;;;;6256113;23;20321;-91
2021/08/13 11:12:19;;;;;;;15.02;9.48;;;;;;;;;;6259151;22;20170;-90
2021/08/13 11:15:37;;;;;;;16.27;9.40;;;;;;;;;;6261150;22;20154;-90
2021/08/13 11:18:56;;;;;;;15.32;9.73;;;;;;;;;;6259384;23;20180;-93
2021/08/13 11:22:02;;;;;;;13.73;9.32;;;;;;;;;;6259317;22;20165;-91
2021/08/13 11:25:10;;;;;;;19.17;9.27;;;;;;;;;;6261027;22;20165;-91
2021/08/13 11:28:17;;;;;;;18.65;10.80;;;;;;;;;;6260002;23;20178;-90
2021/08/13 11:31:49;;;;;;;15.50;9.80;;;;;;;;;;6259272;23;20170;-91
2021/08/13 11:35:03;;;;;;;15.50;10.23;;;;;;;;;;6261790;22;20170;-90
2021/08/13 11:38:11;;;;;;;20.00;10.30;;;;;;;;;;6261642;22;20313;-91
2021/08/13 11:41:25;;;;;;;20.70;10.98;;;;;;;;;;6262150;22;20165;-91
2021/08/13 11:44:38;;;;;;;21.20;10.07;;;;;;;;;;6260463;22;20585;-90
2021/08/13 11:47:48;;;;;;;15.45;10.52;;;;;;;;;;6258413;23;20169;-90
2021/08/13 11:50:54;;;;;;;16.88;10.95;;;;;;;;;;6261393;22;20161;-91
2021/08/13 11:54:01;;;;;;;19.52;10.93;;;;;;;;;;6259129;22;20288;-91
2021/08/13 11:57:13;;;;;;;19.10;10.50;;;;;;;;;;6258717;23;20173;-90
2021/08/13 12:00:18;;;;;;;20.10;10.07;;;;;;;;;;6259264;23;20626;-90
2021/08/13 12:03:26;;;;;;;17.17;10.20;;;;;;;;;;6258948;22;20170;-91
2021/08/13 12:06:42;;;;;;;20.77;10.48;;;;;;;;;;6259951;22;20157;-92
2021/08/13 12:09:47;;;;;;;18.50;10.50;;;;;;;;;;6259333;22;20213;-92
2021/08/13 12:12:55;;;;;;;17.73;9.73;;;;;;;;;;6259237;22;20161;-91
2021/08/13 12:16:02;;;;;;;14.52;10.35;;;;;;;;;;6258756;23;20150;-91
2021/08/13 12:19:11;;;;;;;15.85;10.18;;;;;;;;;;6257337;22;20190;-91
2021/08/13 12:22:17;;;;;;;20.83;10.00;;;;;;;;;;6259526;22;20241;-91
2021/08/13 12:25:22;;;;;;;17.67;9.60;;;;;;;;;;6259745;23;20165;-91
2021/08/13 12:28:42;;;;;;;;;;;;;;;;;;;;;
2021/08/13 12:31:54;;;;;;;15.52;10.60;;;;;;;;;;6259192;22;20170;-92
2021/08/13 12:35:01;;;;;;;18.35;10.02;;;;;;;;;;6256910;22;20265;-89
2021/08/13 12:38:07;;;;;;;15.43;10.18;;;;;;;;;;6260296;22;20221;-90
2021/08/13 12:41:12;;;;;;;15.27;9.48;;;;;;;;;;6258273;23;20166;-91
2021/08/13 12:44:18;;;;;;;16.10;10.23;;;;;;;;;;6257094;22;20169;-91
2021/08/13 12:47:23;;;;;;;16.60;9.65;;;;;;;;;;6258609;23;20170;-90
2021/08/13 12:50:30;;;;;;;15.27;9.75;;;;;;;;;;6258620;22;20186;-90
2021/08/13 12:53:36;;;;;;;18.88;9.43;;;;;;;;;;6261353;22;20150;-90
2021/08/13 12:56:43;;;;;;;12.10;9.05;;;;;;;;;;6260496;22;20166;-89
2021/08/13 12:59:50;;;;;;;15.82;9.23;;;;;;;;;;6262731;23;20234;-91
2021/08/13 13:03:10;;;;;;;19.40;9.38;;;;;;;;;;6260431;23;20315;-90
2021/08/13 13:06:17;;;;;;;15.00;8.30;;;;;;;;;;6258954;23;20170;-91
2021/08/13 13:09:29;;;;;;;15.48;8.05;;;;;;;;;;6260794;22;20200;-92
2021/08/13 13:12:37;;;;;;;14.93;8.30;;;;;;;;;;6260848;22;20209;-90
2021/08/13 13:15:42;;;;;;;14.73;8.65;;;;;;;;;;6261075;23;20166;-91
2021/08/13 13:18:48;;;;;;;21.67;8.50;;;;;;;;;;6263679;22;20468;-91
2021/08/13 13:22:14;;;;;;;12.40;8.48;;;;;;;;;;6259826;22;20158;-91
2021/08/13 13:25:21;;;;;;;13.43;8.30;;;;;;;;;;6262238;23;20186;-91
2021/08/13 13:28:41;;;;;;;11.85;7.82;;;;;;;;;;6260060;22;20648;-90
2021/08/13 13:31:46;;;;;;;14.52;9.05;;;;;;;;;;6260484;22;20166;-91
2021/08/13 13:35:08;;;;;;;13.13;8.32;;;;;;;;;;6261784;22;20158;-89
2021/08/13 13:38:27;;;;;;;18.10;8.95;;;;;;;;;;6260443;22;20170;-90
2021/08/13 13:41:32;;;;;;;14.85;8.52;;;;;;;;;;6260434;22;20178;-91
2021/08/13 13:44:37;;;;;;;15.90;8.63;;;;;;;;;;6261886;22;20153;-89
2021/08/13 13:47:45;;;;;;;17.45;9.02;;;;;;;;;;6258346;22;20206;-90
2021/08/13 13:50:53;;;;;;;16.00;9.10;;;;;;;;;;6258183;22;20158;-91
2021/08/13 13:54:00;;;;;;;18.17;9.20;;;;;;;;;;6259944;23;20264;-90
2021/08/13 13:57:05;;;;;;;20.95;9.35;;;;;;;;;;6260023;23;20609;-90
2021/08/13 14:00:11;;;;;;;17.45;9.20;;;;;;;;;;6259652;22;20192;-90
2021/08/13 14:03:27;;;;;;;16.50;9.18;;;;;;;;;;6258809;22;20216;-90
2021/08/13 14:06:32;;;;;;;17.17;8.63;;;;;;;;;;6258630;22;20161;-90
2021/08/13 14:09:39;;;;;;;15.18;8.10;;;;;;;;;;6257349;23;20209;-92
2021/08/13 14:12:45;;;;;;;13.65;9.00;;;;;;;;;;6258842;23;20166;-90
2021/08/13 14:15:51;;;;;;;16.58;8.52;;;;;;;;;;6258203;22;20166;-91
2021/08/13 14:18:56;;;;;;;13.98;8.10;;;;;;;;;;6257015;22;20181;-91
2021/08/13 14:22:03;;;;;;;11.80;8.27;;;;;;;;;;6264072;23;20189;-92
2021/08/13 14:25:12;;;;;;;13.68;8.52;;;;;;;;;;6257613;23;20166;-91
2021/08/13 14:28:19;;;;;;;17.42;8.70;;;;;;;;;;6260209;22;20146;-91
2021/08/13 14:31:24;;;;;;;17.80;9.20;;;;;;;;;;6260115;23;20170;-91
2021/08/13 14:34:30;;;;;;;12.82;8.32;;;;;;;;;;6261038;23;20173;-90
2021/08/13 14:37:35;;;;;;;16.35;8.88;;;;;;;;;;6261943;22;20173;-90
2021/08/13 14:40:42;;;;;;;16.55;8.77;;;;;;;;;;6259314;23;20169;-90
2021/08/13 14:43:48;;;;;;;16.65;8.57;;;;;;;;;;6261952;22;20182;-89
2021/08/13 14:46:53;;;;;;;12.70;7.95;;;;;;;;;;6260914;22;20181;-91
2021/08/13 14:49:59;;;;;;;11.88;8.07;;;;;;;;;;6258152;23;20245;-91
2021/08/13 14:53:05;;;;;;;11.77;8.55;;;;;;;;;;6257575;22;20154;-91
2021/08/13 14:56:13;;;;;;;18.05;8.68;;;;;;;;;;6257253;22;20178;-92
2021/08/13 14:59:18;;;;;;;20.27;8.57;;;;;;;;;;6258870;23;20189;-91
2021/08/13 15:02:28;;;;;;;14.15;8.18;;;;;;;;;;6259669;22;20233;-91
2021/08/13 15:05:32;;;;;;;12.93;7.97;;;;;;;;;;6259830;23;20166;-91
2021/08/13 15:08:38;;;;;;;17.73;8.55;;;;;;;;;;6258694;23;20170;-90
2021/08/13 15:11:45;;;;;;;12.88;8.20;;;;;;;;;;6261539;22;20177;-91
2021/08/13 15:14:50;;;;;;;17.38;8.93;;;;;;;;;;6259166;23;20204;-90
2021/08/13 15:17:55;;;;;;;13.45;8.77;;;;;;;;;;6257737;22;20161;-90
2021/08/13 15:21:00;;;;;;;30.60;9.18;;;;;;;;;;6259127;22;20186;-91
2021/08/13 15:24:06;;;;;;;13.30;8.10;;;;;;;;;;6259616;22;20190;-90
2021/08/13 15:27:12;;;;;;;17.88;8.50;;;;;;;;;;6260069;23;20213;-91
2021/08/13 15:30:18;;;;;;;22.05;9.20;;;;;;;;;;6259408;22;20217;-90
2021/08/13 15:33:23;;;;;;;12.60;8.57;;;;;;;;;;6259863;22;20234;-91
2021/08/13 15:36:28;;;;;;;13.52;8.73;;;;;;;;;;6258565;22;20231;-92
2021/08/13 15:39:36;;;;;;;16.35;8.95;;;;;;;;;;6259407;22;20198;-90
2021/08/13 15:42:43;;;;;;;14.48;8.70;;;;;;;;;;6260577;22;20162;-89
2021/08/13 15:45:48;;;;;;;14.52;8.68;;;;;;;;;;6261080;22;20235;-90
2021/08/13 15:48:53;;;;;;;16.88;8.80;;;;;;;;;;6260754;22;20211;-90
2021/08/13 15:52:00;;;;;;;16.50;8.90;;;;;;;;;;6262383;22;20185;-90
2021/08/13 15:55:06;;;;;;;20.70;8.35;;;;;;;;;;6260727;22;20158;-91
2021/08/13 15:58:13;;;;;;;16.15;8.07;;;;;;;;;;6261524;22;20602;-91
2021/08/13 16:01:17;;;;;;;14.18;8.48;;;;;;;;;;6260130;22;20261;-91
2021/08/13 16:04:22;;;;;;;19.08;9.13;;;;;;;;;;6258240;22;20166;-91
2021/08/13 16:07:27;;;;;;;14.52;8.35;;;;;;;;;;6257399;22;20169;-92
2021/08/13 16:10:33;;;;;;;18.58;9.80;;;;;;;;;;6259676;22;20197;-91
2021/08/13 16:13:40;;;;;;;16.65;9.45;;;;;;;;;;6256325;22;20169;-91
2021/08/13 16:16:48;;;;;;;14.30;9.15;;;;;;;;;;6258082;22;20162;-92
2021/08/13 16:19:53;;;;;;;17.02;8.75;;;;;;;;;;6260518;22;20178;-92
2021/08/13 16:22:59;;;;;;;15.35;9.20;;;;;;;;;;6261214;23;20178;-91
2021/08/13 16:26:04;;;;;;;14.55;8.40;;;;;;;;;;6260045;23;20166;-90
2021/08/13 16:29:11;;;;;;;16.58;8.32;;;;;;;;;;6258517;23;20146;-92
2021/08/13 16:32:24;;;;;;;12.98;8.25;;;;;;;;;;6259370;23;20626;-91
2021/08/13 16:35:29;;;;;;;17.00;8.82;;;;;;;;;;6260641;22;20170;-92
2021/08/13 16:38:34;;;;;;;15.02;8.57;;;;;;;;;;6262073;22;20170;-93
2021/08/13 16:41:39;;;;;;;14.55;8.88;;;;;;;;;;6259843;23;20241;-91
2021/08/13 16:44:46;;;;;;;17.15;8.88;;;;;;;;;;6261843;22;20197;-91
2021/08/13 16:47:51;;;;;;;16.13;10.00;;;;;;;;;;6265377;22;20178;-91
2021/08/13 16:50:58;;;;;;;18.15;9.43;;;;;;;;;;6262925;23;20197;-90
2021/08/13 16:54:03;;;;;;;14.10;9.18;;;;;;;;;;6262030;22;20519;-91
2021/08/13 16:57:08;;;;;;;18.08;9.10;;;;;;;;;;6260992;23;20174;-90
2021/08/13 17:00:16;;;;;;;14.48;9.50;;;;;;;;;;6261321;22;20198;-91
2021/08/13 17:03:22;;;;;;;17.80;8.88;;;;;;;;;;6261753;23;20210;-91
2021/08/13 17:06:27;;;;;;;16.90;9.40;;;;;;;;;;6262123;22;20191;-91
2021/08/13 17:09:33;;;;;;;23.85;9.02;;;;;;;;;;6261743;22;20324;-90
2021/08/13 17:12:39;;;;;;;17.30;9.30;;;;;;;;;;6260645;22;20166;-91
2021/08/13 17:15:46;;;;;;;13.75;9.55;;;;;;;;;;6260732;22;20177;-91
2021/08/13 17:18:52;;;;;;;20.77;9.98;;;;;;;;;;6260361;22;20175;-91
2021/08/13 17:21:57;;;;;;;19.48;10.05;;;;;;;;;;6260626;22;20170;-91
2021/08/13 17:25:02;;;;;;;20.00;9.60;;;;;;;;;;6262194;22;20167;-91
2021/08/13 17:28:09;;;;;;;18.15;9.45;;;;;;;;;;6260979;22;20170;-91
2021/08/13 17:31:16;;;;;;;15.30;9.25;;;;;;;;;;6261778;22;20194;-91
2021/08/13 17:34:21;;;;;;;18.90;10.15;;;;;;;;;;6260833;22;20174;-90
2021/08/13 17:37:28;;;;;;;18.30;9.68;;;;;;;;;;6258770;23;20535;-91
2021/08/13 17:40:34;;;;;;;20.92;9.60;;;;;;;;;;6262214;22;20174;-90
2021/08/13 17:43:40;;;;;;;23.60;10.65;;;;;;;;;;6259440;23;20182;-91
2021/08/13 17:46:46;;;;;;;21.88;9.98;;;;;;;;;;6259661;23;20171;-90
2021/08/13 17:49:51;;;;;;;20.02;10.27;;;;;;;;;;6257609;22;20645;-90
2021/08/13 17:52:56;;;;;;;19.20;10.60;;;;;;;;;;6259033;23;20197;-90
2021/08/13 17:56:01;;;;;;;19.85;10.27;;;;;;;;;;6259787;23;20474;-90
2021/08/13 17:59:06;;;;;;;19.13;10.10;;;;;;;;;;6259637;22;20182;-91
2021/08/13 18:02:14;;;;;;;18.83;10.73;;;;;;;;;;6259289;22;20205;-91
2021/08/13 18:05:19;;;;;;;20.95;11.73;;;;;;;;;;6260535;22;20153;-90
2021/08/13 18:08:25;;;;;;;20.23;11.18;;;;;;;;;;6257773;22;20598;-91
2021/08/13 18:11:31;;;;;;;18.30;11.20;;;;;;;;;;6259628;23;20174;-92
2021/08/13 18:14:36;;;;;;;23.60;11.82;;;;;;;;;;6259826;22;20163;-90
2021/08/13 18:17:44;;;;;;;24.60;12.00;;;;;;;;;;6259859;23;20150;-91
2021/08/13 18:20:51;;;;;;;21.80;11.93;;;;;;;;;;6260898;23;20229;-92
2021/08/13 18:23:59;;;;;;;20.08;11.95;;;;;;;;;;6261752;22;20162;-91
2021/08/13 18:27:04;;;;;;;20.67;11.40;;;;;;;;;;6262021;22;20167;-91
2021/08/13 18:30:10;;;;;;;23.80;14.07;;;;;;;;;;6258310;23;20190;-89
2021/08/13 18:33:19;;;;;;;20.92;12.45;;;;;;;;;;6259678;22;20166;-91
2021/08/13 18:36:24;;;;;;;17.35;11.07;;;;;;;;;;6260833;23;20167;-89
2021/08/13 18:39:29;;;;;;;18.73;10.82;;;;;;;;;;6259297;22;20166;-91
2021/08/13 18:42:35;;;;;;;18.15;11.15;;;;;;;;;;6258012;22;20245;-90
2021/08/13 18:45:41;;;;;;;23.77;11.75;;;;;;;;;;6260907;22;20145;-89
2021/08/13 18:48:48;;;;;;;16.85;11.82;;;;;;;;;;6258456;23;20241;-89
2021/08/13 18:51:54;;;;;;;23.60;12.57;;;;;;;;;;6258359;23;20514;-91
2021/08/13 18:54:59;;;;;;;22.08;12.02;;;;;;;;;;6258510;23;20616;-91
2021/08/13 18:58:04;;;;;;;24.15;11.40;;;;;;;;;;6261321;22;20170;-90
2021/08/13 19:01:10;;;;;;;19.75;11.20;;;;;;;;;;6257820;22;20221;-92
2021/08/13 19:04:17;;;;;;;22.75;13.02;;;;;;;;;;6259553;23;20170;-90
2021/08/13 19:07:23;;;;;;;22.17;11.68;;;;;;;;;;6258473;23;20223;-91
2021/08/13 19:10:29;;;;;;;24.23;11.85;;;;;;;;;;6259726;22;20201;-91
2021/08/13 19:13:37;;;;;;;17.35;10.85;;;;;;;;;;6260467;23;20174;-90
2021/08/13 19:16:42;;;;;;;27.25;11.98;;;;;;;;;;6259254;23;20213;-91
2021/08/13 19:19:50;;;;;;;18.42;11.68;;;;;;;;;;6258394;22;20569;-90
2021/08/13 19:22:56;;;;;;;24.42;12.65;;;;;;;;;;6259811;22;20167;-91
2021/08/13 19:26:01;;;;;;;21.40;12.32;;;;;;;;;;6259706;23;20167;-90
2021/08/13 19:29:06;;;;;;;15.85;11.82;;;;;;;;;;6260875;23;20225;-91
2021/08/13 19:32:12;;;;;;;19.40;11.05;;;;;;;;;;6258428;23;20178;-91
2021/08/13 19:35:53;;;;;;;18.58;12.32;;;;;;;;;;6258711;22;20158;-92
2021/08/13 19:38:59;;;;;;;21.70;12.40;;;;;;;;;;6259633;23;20171;-91
2021/08/13 19:42:05;;;;;;;24.05;14.18;;;;;;;;;;6257391;23;20170;-90
2021/08/13 19:45:10;;;;;;;25.25;14.93;;;;;;;;;;6257563;22;20165;-90
2021/08/13 19:48:16;;;;;;;27.33;12.35;;;;;;;;;;6255798;23;20502;-90
2021/08/13 19:51:21;;;;;;;26.73;13.15;;;;;;;;;;6257081;23;20209;-89
2021/08/13 19:54:28;;;;;;;20.58;12.10;;;;;;;;;;6256078;22;20170;-90
2021/08/13 19:57:33;;;;;;;23.58;13.43;;;;;;;;;;6256151;23;20170;-91
2021/08/13 20:00:39;;;;;;;19.17;12.65;;;;;;;;;;6257533;23;20317;-89
2021/08/13 20:03:44;;;;;;;19.83;11.93;;;;;;;;;;6256778;23;20234;-90
2021/08/13 20:06:49;;;;;;;20.05;12.05;;;;;;;;;;6256886;22;20235;-90
2021/08/13 20:09:55;;;;;;;20.17;13.40;;;;;;;;;;6257557;23;20175;-90
2021/08/13 20:13:00;;;;;;;21.88;11.77;;;;;;;;;;6258047;23;20150;-90
2021/08/13 20:16:09;;;;;;;20.02;12.63;;;;;;;;;;6257497;22;20245;-91
2021/08/13 20:19:14;;;;;;;21.38;12.85;;;;;;;;;;6257610;23;20157;-90
2021/08/13 20:22:20;;;;;;;19.48;12.00;;;;;;;;;;6257513;23;20318;-90
2021/08/13 20:25:27;;;;;;;23.80;12.20;;;;;;;;;;6256517;23;20171;-92
2021/08/13 20:28:32;;;;;;;19.40;12.15;;;;;;;;;;6253900;23;20151;-90